sensor_id;sensor_type;location;lat;lon;timestamp;temperature;humidity
23073;DHT22;34865;51.046;3.732;2023-01-26T00:01:29;3.60;99.90
23073;DHT22;34865;51.046;3.732;2023-01-26T00:03:55;3.30;99.90
23073;DHT22;34865;51.046;3.732;2023-01-26T00:06:21;3.30;99.90
23073;DHT22;34865;51.046;3.732;2023-01-26T00:08:50;3.40;99.90
23073;DHT22;34865;51.046;3.732;2023-01-26T00:11:27;3.50;99.90
23073;DHT22;34865;51.046;3.732;2023-01-26T00:13:55;3.60;99.90
23073;DHT22;34865;51.046;3.732;2023-01-26T00:16:21;3.60;99.90
23073;DHT22;34865;51.046;3.732;2023-01-26T00:18:47;3.60;99.90
23073;DHT22;34865;51.046;3.732;2023-01-26T00:21:17;3.60;99.90
23073;DHT22;34865;51.046;3.732;2023-01-26T00:23:44;3.40;99.90
23073;DHT22;34865;51.046;3.732;2023-01-26T00:26:14;3.20;99.90
23073;DHT22;34865;51.046;3.732;2023-01-26T00:28:40;3.40;99.90
23073;DHT22;34865;51.046;3.732;2023-01-26T00:31:09;3.50;99.90
23073;DHT22;34865;51.046;3.732;2023-01-26T00:33:35;3.60;99.90
23073;DHT22;34865;51.046;3.732;2023-01-26T00:36:00;3.60;99.90
23073;DHT22;34865;51.046;3.732;2023-01-26T00:38:26;3.70;99.90
23073;DHT22;34865;51.046;3.732;2023-01-26T00:40:51;3.70;99.90
23073;DHT22;34865;51.046;3.732;2023-01-26T00:43:17;3.80;99.90
23073;DHT22;34865;51.046;3.732;2023-01-26T00:45:43;3.80;99.90
23073;DHT22;34865;51.046;3.732;2023-01-26T00:48:08;3.70;99.90
23073;DHT22;34865;51.046;3.732;2023-01-26T00:50:34;3.80;99.90
23073;DHT22;34865;51.046;3.732;2023-01-26T00:53:00;3.90;99.90
23073;DHT22;34865;51.046;3.732;2023-01-26T00:55:26;4.00;99.90
23073;DHT22;34865;51.046;3.732;2023-01-26T00:58:03;3.90;99.90
23073;DHT22;34865;51.046;3.732;2023-01-26T01:00:29;4.00;99.90
23073;DHT22;34865;51.046;3.732;2023-01-26T01:02:56;3.90;99.90
23073;DHT22;34865;51.046;3.732;2023-01-26T01:05:23;4.00;99.90
23073;DHT22;34865;51.046;3.732;2023-01-26T01:07:48;4.00;99.90
23073;DHT22;34865;51.046;3.732;2023-01-26T01:10:14;3.90;99.90
23073;DHT22;34865;51.046;3.732;2023-01-26T01:12:40;3.90;99.90
23073;DHT22;34865;51.046;3.732;2023-01-26T01:15:06;4.00;99.90
23073;DHT22;34865;51.046;3.732;2023-01-26T01:17:32;3.90;99.90
23073;DHT22;34865;51.046;3.732;2023-01-26T01:20:01;3.90;99.90
23073;DHT22;34865;51.046;3.732;2023-01-26T01:22:26;3.90;99.90
23073;DHT22;34865;51.046;3.732;2023-01-26T01:24:52;3.80;99.90
23073;DHT22;34865;51.046;3.732;2023-01-26T01:27:17;3.80;99.90
23073;DHT22;34865;51.046;3.732;2023-01-26T01:29:43;3.80;99.90
23073;DHT22;34865;51.046;3.732;2023-01-26T01:32:09;3.80;99.90
23073;DHT22;34865;51.046;3.732;2023-01-26T01:34:34;3.50;99.90
23073;DHT22;34865;51.046;3.732;2023-01-26T01:37:00;3.60;99.90
23073;DHT22;34865;51.046;3.732;2023-01-26T01:39:25;3.50;99.90
23073;DHT22;34865;51.046;3.732;2023-01-26T01:41:51;3.30;99.90
23073;DHT22;34865;51.046;3.732;2023-01-26T01:44:19;3.50;99.90
23073;DHT22;34865;51.046;3.732;2023-01-26T01:47:10;3.60;99.90
23073;DHT22;34865;51.046;3.732;2023-01-26T01:49:45;3.70;99.90
23073;DHT22;34865;51.046;3.732;2023-01-26T01:52:16;3.70;99.90
23073;DHT22;34865;51.046;3.732;2023-01-26T01:54:54;3.70;99.90
23073;DHT22;34865;51.046;3.732;2023-01-26T01:57:28;3.30;99.90
23073;DHT22;34865;51.046;3.732;2023-01-26T02:00:05;3.40;99.90
23073;DHT22;34865;51.046;3.732;2023-01-26T02:02:31;3.70;99.90
23073;DHT22;34865;51.046;3.732;2023-01-26T02:05:03;3.80;99.90
23073;DHT22;34865;51.046;3.732;2023-01-26T02:07:31;3.90;99.90
23073;DHT22;34865;51.046;3.732;2023-01-26T02:09:58;4.00;99.90
23073;DHT22;34865;51.046;3.732;2023-01-26T02:12:43;3.90;99.90
23073;DHT22;34865;51.046;3.732;2023-01-26T02:15:10;3.80;99.90
23073;DHT22;34865;51.046;3.732;2023-01-26T02:17:35;3.70;99.90
23073;DHT22;34865;51.046;3.732;2023-01-26T02:28:00;4.10;99.90
23073;DHT22;34865;51.046;3.732;2023-01-26T02:30:27;4.10;99.90
23073;DHT22;34865;51.046;3.732;2023-01-26T02:32:54;4.10;99.90
23073;DHT22;34865;51.046;3.732;2023-01-26T02:35:19;4.10;99.90
23073;DHT22;34865;51.046;3.732;2023-01-26T02:37:45;3.90;99.90
23073;DHT22;34865;51.046;3.732;2023-01-26T02:40:23;3.80;99.90
23073;DHT22;34865;51.046;3.732;2023-01-26T02:42:50;3.90;99.90
23073;DHT22;34865;51.046;3.732;2023-01-26T02:45:19;3.70;99.90
23073;DHT22;34865;51.046;3.732;2023-01-26T02:47:45;3.50;99.90
23073;DHT22;34865;51.046;3.732;2023-01-26T02:50:11;3.40;99.90
23073;DHT22;34865;51.046;3.732;2023-01-26T02:52:37;3.50;99.90
23073;DHT22;34865;51.046;3.732;2023-01-26T02:55:03;3.80;99.90
23073;DHT22;34865;51.046;3.732;2023-01-26T02:57:48;4.00;99.90
23073;DHT22;34865;51.046;3.732;2023-01-26T03:00:30;4.20;99.90
23073;DHT22;34865;51.046;3.732;2023-01-26T03:03:03;4.30;99.90
23073;DHT22;34865;51.046;3.732;2023-01-26T03:05:31;4.30;99.90
23073;DHT22;34865;51.046;3.732;2023-01-26T03:07:56;4.10;99.90
23073;DHT22;34865;51.046;3.732;2023-01-26T03:10:22;4.20;99.90
23073;DHT22;34865;51.046;3.732;2023-01-26T03:12:49;4.10;99.90
23073;DHT22;34865;51.046;3.732;2023-01-26T03:15:15;4.20;99.90
23073;DHT22;34865;51.046;3.732;2023-01-26T03:18:11;4.30;99.90
23073;DHT22;34865;51.046;3.732;2023-01-26T03:21:14;4.10;99.90
23073;DHT22;34865;51.046;3.732;2023-01-26T03:24:00;4.20;99.90
23073;DHT22;34865;51.046;3.732;2023-01-26T03:26:44;4.20;99.90
23073;DHT22;34865;51.046;3.732;2023-01-26T03:29:29;3.90;99.90
23073;DHT22;34865;51.046;3.732;2023-01-26T03:31:54;4.00;99.90
23073;DHT22;34865;51.046;3.732;2023-01-26T03:34:20;4.10;99.90
23073;DHT22;34865;51.046;3.732;2023-01-26T03:36:47;3.80;99.90
23073;DHT22;34865;51.046;3.732;2023-01-26T03:39:13;3.80;99.90
23073;DHT22;34865;51.046;3.732;2023-01-26T03:41:59;3.90;99.90
23073;DHT22;34865;51.046;3.732;2023-01-26T03:44:43;3.70;99.90
23073;DHT22;34865;51.046;3.732;2023-01-26T03:47:31;3.70;99.90
23073;DHT22;34865;51.046;3.732;2023-01-26T03:50:15;3.80;99.90
23073;DHT22;34865;51.046;3.732;2023-01-26T03:52:59;3.60;99.90
23073;DHT22;34865;51.046;3.732;2023-01-26T03:55:43;3.70;99.90
23073;DHT22;34865;51.046;3.732;2023-01-26T03:58:27;3.80;99.90
23073;DHT22;34865;51.046;3.732;2023-01-26T04:00:55;3.60;99.90
23073;DHT22;34865;51.046;3.732;2023-01-26T04:03:21;3.70;99.90
23073;DHT22;34865;51.046;3.732;2023-01-26T04:06:08;3.50;99.90
23073;DHT22;34865;51.046;3.732;2023-01-26T04:08:52;3.70;99.90
23073;DHT22;34865;51.046;3.732;2023-01-26T04:11:18;3.50;99.90
23073;DHT22;34865;51.046;3.732;2023-01-26T04:13:43;3.50;99.90
23073;DHT22;34865;51.046;3.732;2023-01-26T04:16:27;3.60;99.90
23073;DHT22;34865;51.046;3.732;2023-01-26T04:19:11;3.50;99.90
23073;DHT22;34865;51.046;3.732;2023-01-26T04:21:58;3.50;99.90
23073;DHT22;34865;51.046;3.732;2023-01-26T04:24:27;3.50;99.90
23073;DHT22;34865;51.046;3.732;2023-01-26T04:26:52;3.50;99.90
23073;DHT22;34865;51.046;3.732;2023-01-26T04:29:18;3.40;99.90
23073;DHT22;34865;51.046;3.732;2023-01-26T04:31:43;3.40;99.90
23073;DHT22;34865;51.046;3.732;2023-01-26T04:34:11;3.60;99.90
23073;DHT22;34865;51.046;3.732;2023-01-26T04:36:38;3.90;99.90
23073;DHT22;34865;51.046;3.732;2023-01-26T04:39:03;4.00;99.90
23073;DHT22;34865;51.046;3.732;2023-01-26T04:41:30;3.90;99.90
23073;DHT22;34865;51.046;3.732;2023-01-26T04:43:55;3.90;99.90
23073;DHT22;34865;51.046;3.732;2023-01-26T04:46:21;3.90;99.90
23073;DHT22;34865;51.046;3.732;2023-01-26T04:48:47;4.10;99.90
23073;DHT22;34865;51.046;3.732;2023-01-26T04:51:18;4.20;99.90
23073;DHT22;34865;51.046;3.732;2023-01-26T04:53:45;4.30;99.90
23073;DHT22;34865;51.046;3.732;2023-01-26T04:56:24;4.20;99.90
23073;DHT22;34865;51.046;3.732;2023-01-26T04:58:51;4.20;99.90
23073;DHT22;34865;51.046;3.732;2023-01-26T05:01:17;4.20;99.90
23073;DHT22;34865;51.046;3.732;2023-01-26T05:03:43;4.20;99.90
23073;DHT22;34865;51.046;3.732;2023-01-26T05:06:09;4.20;99.90
23073;DHT22;34865;51.046;3.732;2023-01-26T05:08:35;3.90;99.90
23073;DHT22;34865;51.046;3.732;2023-01-26T05:11:01;3.90;99.90
23073;DHT22;34865;51.046;3.732;2023-01-26T05:13:27;4.00;99.90
23073;DHT22;34865;51.046;3.732;2023-01-26T05:15:53;4.00;99.90
23073;DHT22;34865;51.046;3.732;2023-01-26T05:18:18;3.80;99.90
23073;DHT22;34865;51.046;3.732;2023-01-26T05:20:44;3.80;99.90
23073;DHT22;34865;51.046;3.732;2023-01-26T05:23:09;3.80;99.90
23073;DHT22;34865;51.046;3.732;2023-01-26T05:25:35;3.80;99.90
23073;DHT22;34865;51.046;3.732;2023-01-26T05:28:01;3.70;99.90
23073;DHT22;34865;51.046;3.732;2023-01-26T05:30:26;3.80;99.90
23073;DHT22;34865;51.046;3.732;2023-01-26T05:32:52;3.80;99.90
23073;DHT22;34865;51.046;3.732;2023-01-26T05:35:18;3.90;99.90
23073;DHT22;34865;51.046;3.732;2023-01-26T05:37:44;3.90;99.90
23073;DHT22;34865;51.046;3.732;2023-01-26T05:40:11;4.00;99.90
23073;DHT22;34865;51.046;3.732;2023-01-26T05:42:37;3.90;99.90
23073;DHT22;34865;51.046;3.732;2023-01-26T05:45:04;3.70;99.90
23073;DHT22;34865;51.046;3.732;2023-01-26T05:47:30;3.70;99.90
23073;DHT22;34865;51.046;3.732;2023-01-26T05:49:55;3.50;99.90
23073;DHT22;34865;51.046;3.732;2023-01-26T05:52:21;3.50;99.90
23073;DHT22;34865;51.046;3.732;2023-01-26T05:54:47;3.50;99.90
23073;DHT22;34865;51.046;3.732;2023-01-26T05:57:13;3.60;99.90
23073;DHT22;34865;51.046;3.732;2023-01-26T05:59:41;3.50;99.90
23073;DHT22;34865;51.046;3.732;2023-01-26T06:02:07;3.60;99.90
23073;DHT22;34865;51.046;3.732;2023-01-26T06:04:34;3.80;99.90
23073;DHT22;34865;51.046;3.732;2023-01-26T06:06:59;3.80;99.90
23073;DHT22;34865;51.046;3.732;2023-01-26T06:09:25;3.80;99.90
23073;DHT22;34865;51.046;3.732;2023-01-26T06:11:51;3.60;99.90
23073;DHT22;34865;51.046;3.732;2023-01-26T06:14:16;3.60;99.90
23073;DHT22;34865;51.046;3.732;2023-01-26T06:16:42;3.60;99.90
23073;DHT22;34865;51.046;3.732;2023-01-26T06:19:09;3.60;99.90
23073;DHT22;34865;51.046;3.732;2023-01-26T06:21:35;3.60;99.90
23073;DHT22;34865;51.046;3.732;2023-01-26T06:24:01;3.60;99.90
23073;DHT22;34865;51.046;3.732;2023-01-26T06:26:27;3.60;99.90
23073;DHT22;34865;51.046;3.732;2023-01-26T06:28:52;3.60;99.90
23073;DHT22;34865;51.046;3.732;2023-01-26T06:31:19;3.60;99.90
23073;DHT22;34865;51.046;3.732;2023-01-26T06:33:45;3.60;99.90
23073;DHT22;34865;51.046;3.732;2023-01-26T06:36:13;3.60;99.90
23073;DHT22;34865;51.046;3.732;2023-01-26T06:38:44;3.70;99.90
23073;DHT22;34865;51.046;3.732;2023-01-26T06:41:10;3.70;99.90
23073;DHT22;34865;51.046;3.732;2023-01-26T06:43:36;3.60;99.90
23073;DHT22;34865;51.046;3.732;2023-01-26T06:46:03;3.60;99.90
23073;DHT22;34865;51.046;3.732;2023-01-26T06:48:32;3.50;99.90
23073;DHT22;34865;51.046;3.732;2023-01-26T06:54:11;3.60;99.90
23073;DHT22;34865;51.046;3.732;2023-01-26T06:56:38;3.70;99.90
23073;DHT22;34865;51.046;3.732;2023-01-26T06:59:04;3.60;99.90
23073;DHT22;34865;51.046;3.732;2023-01-26T07:01:34;3.70;99.90
23073;DHT22;34865;51.046;3.732;2023-01-26T07:04:00;3.70;99.90
23073;DHT22;34865;51.046;3.732;2023-01-26T07:06:26;3.60;99.90
23073;DHT22;34865;51.046;3.732;2023-01-26T07:08:52;3.70;99.90
23073;DHT22;34865;51.046;3.732;2023-01-26T07:11:17;3.70;99.90
23073;DHT22;34865;51.046;3.732;2023-01-26T07:13:44;3.80;99.90
23073;DHT22;34865;51.046;3.732;2023-01-26T07:16:14;3.90;99.90
23073;DHT22;34865;51.046;3.732;2023-01-26T07:21:15;4.10;99.90
23073;DHT22;34865;51.046;3.732;2023-01-26T07:23:42;4.10;99.90
23073;DHT22;34865;51.046;3.732;2023-01-26T07:26:08;4.30;99.90
23073;DHT22;34865;51.046;3.732;2023-01-26T07:28:34;4.30;99.90
23073;DHT22;34865;51.046;3.732;2023-01-26T07:31:01;4.50;99.90
23073;DHT22;34865;51.046;3.732;2023-01-26T07:33:31;4.50;99.90
23073;DHT22;34865;51.046;3.732;2023-01-26T07:35:58;4.70;99.90
23073;DHT22;34865;51.046;3.732;2023-01-26T07:38:24;4.80;99.90
23073;DHT22;34865;51.046;3.732;2023-01-26T07:40:50;4.80;99.90
23073;DHT22;34865;51.046;3.732;2023-01-26T07:43:16;4.90;99.90
23073;DHT22;34865;51.046;3.732;2023-01-26T07:45:46;4.90;99.90
23073;DHT22;34865;51.046;3.732;2023-01-26T07:48:15;5.00;99.90
23073;DHT22;34865;51.046;3.732;2023-01-26T07:50:41;5.10;99.90
23073;DHT22;34865;51.046;3.732;2023-01-26T07:53:06;4.80;99.90
23073;DHT22;34865;51.046;3.732;2023-01-26T07:55:34;5.00;99.90
23073;DHT22;34865;51.046;3.732;2023-01-26T07:57:59;5.10;99.90
23073;DHT22;34865;51.046;3.732;2023-01-26T08:00:25;5.00;99.90
23073;DHT22;34865;51.046;3.732;2023-01-26T08:02:51;5.10;99.90
23073;DHT22;34865;51.046;3.732;2023-01-26T08:05:17;5.10;99.90
23073;DHT22;34865;51.046;3.732;2023-01-26T08:07:42;5.10;99.90
23073;DHT22;34865;51.046;3.732;2023-01-26T08:10:08;5.30;99.90
23073;DHT22;34865;51.046;3.732;2023-01-26T08:12:35;5.40;99.90
23073;DHT22;34865;51.046;3.732;2023-01-26T08:15:02;5.60;99.90
23073;DHT22;34865;51.046;3.732;2023-01-26T08:17:28;5.60;99.90
23073;DHT22;34865;51.046;3.732;2023-01-26T08:19:54;5.70;99.90
23073;DHT22;34865;51.046;3.732;2023-01-26T08:22:19;5.80;99.90
23073;DHT22;34865;51.046;3.732;2023-01-26T08:24:45;5.80;99.90
23073;DHT22;34865;51.046;3.732;2023-01-26T08:27:10;6.00;99.90
23073;DHT22;34865;51.046;3.732;2023-01-26T08:29:36;6.20;99.90
23073;DHT22;34865;51.046;3.732;2023-01-26T08:32:02;6.30;99.90
23073;DHT22;34865;51.046;3.732;2023-01-26T08:34:28;6.30;99.90
23073;DHT22;34865;51.046;3.732;2023-01-26T08:36:53;6.30;99.90
23073;DHT22;34865;51.046;3.732;2023-01-26T08:39:19;6.40;99.90
23073;DHT22;34865;51.046;3.732;2023-01-26T08:41:46;6.40;99.90
23073;DHT22;34865;51.046;3.732;2023-01-26T08:44:12;6.40;99.90
23073;DHT22;34865;51.046;3.732;2023-01-26T08:46:38;6.50;99.90
23073;DHT22;34865;51.046;3.732;2023-01-26T08:49:03;6.40;99.90
23073;DHT22;34865;51.046;3.732;2023-01-26T08:51:29;6.70;99.90
23073;DHT22;34865;51.046;3.732;2023-01-26T08:53:55;6.60;99.90
23073;DHT22;34865;51.046;3.732;2023-01-26T08:56:21;6.60;99.90
23073;DHT22;34865;51.046;3.732;2023-01-26T08:58:47;6.70;99.90
23073;DHT22;34865;51.046;3.732;2023-01-26T09:01:14;6.70;99.90
23073;DHT22;34865;51.046;3.732;2023-01-26T09:03:40;6.80;99.90
23073;DHT22;34865;51.046;3.732;2023-01-26T09:06:09;6.90;99.90
23073;DHT22;34865;51.046;3.732;2023-01-26T09:08:35;6.80;99.90
23073;DHT22;34865;51.046;3.732;2023-01-26T09:11:01;6.80;99.90
23073;DHT22;34865;51.046;3.732;2023-01-26T09:13:30;6.90;99.90
23073;DHT22;34865;51.046;3.732;2023-01-26T09:15:55;6.90;99.90
23073;DHT22;34865;51.046;3.732;2023-01-26T09:18:21;7.00;99.90
23073;DHT22;34865;51.046;3.732;2023-01-26T09:20:47;7.00;99.90
23073;DHT22;34865;51.046;3.732;2023-01-26T09:23:14;7.00;99.90
23073;DHT22;34865;51.046;3.732;2023-01-26T09:25:42;7.00;99.90
23073;DHT22;34865;51.046;3.732;2023-01-26T09:28:08;7.00;99.90
23073;DHT22;34865;51.046;3.732;2023-01-26T09:30:34;7.10;99.90
23073;DHT22;34865;51.046;3.732;2023-01-26T09:33:01;7.20;99.90
23073;DHT22;34865;51.046;3.732;2023-01-26T09:35:28;7.50;99.90
23073;DHT22;34865;51.046;3.732;2023-01-26T09:37:55;7.50;99.90
23073;DHT22;34865;51.046;3.732;2023-01-26T09:40:34;7.50;99.90
23073;DHT22;34865;51.046;3.732;2023-01-26T09:43:34;7.60;99.90
23073;DHT22;34865;51.046;3.732;2023-01-26T09:48:56;7.70;99.90
23073;DHT22;34865;51.046;3.732;2023-01-26T09:51:45;7.70;99.90
23073;DHT22;34865;51.046;3.732;2023-01-26T09:56:49;7.80;99.90
23073;DHT22;34865;51.046;3.732;2023-01-26T09:59:53;7.90;99.90
23073;DHT22;34865;51.046;3.732;2023-01-26T10:02:53;7.90;99.90
23073;DHT22;34865;51.046;3.732;2023-01-26T10:05:44;8.00;99.90
23073;DHT22;34865;51.046;3.732;2023-01-26T10:08:14;8.00;99.90
23073;DHT22;34865;51.046;3.732;2023-01-26T10:11:04;8.10;99.90
23073;DHT22;34865;51.046;3.732;2023-01-26T10:13:33;8.20;99.90
23073;DHT22;34865;51.046;3.732;2023-01-26T10:16:03;8.30;99.90
23073;DHT22;34865;51.046;3.732;2023-01-26T10:21:11;8.50;99.90
23073;DHT22;34865;51.046;3.732;2023-01-26T10:23:46;8.50;99.90
23073;DHT22;34865;51.046;3.732;2023-01-26T10:26:18;8.60;99.90
23073;DHT22;34865;51.046;3.732;2023-01-26T10:28:47;8.50;99.90
23073;DHT22;34865;51.046;3.732;2023-01-26T10:33:50;8.70;99.90
23073;DHT22;34865;51.046;3.732;2023-01-26T10:36:17;8.70;99.90
23073;DHT22;34865;51.046;3.732;2023-01-26T10:38:44;8.50;99.90
23073;DHT22;34865;51.046;3.732;2023-01-26T10:41:23;8.60;99.90
23073;DHT22;34865;51.046;3.732;2023-01-26T10:43:59;8.50;99.90
23073;DHT22;34865;51.046;3.732;2023-01-26T10:46:30;8.40;99.90
23073;DHT22;34865;51.046;3.732;2023-01-26T10:48:58;8.40;99.90
23073;DHT22;34865;51.046;3.732;2023-01-26T10:51:27;8.30;99.90
23073;DHT22;34865;51.046;3.732;2023-01-26T10:56:50;8.10;99.90
23073;DHT22;34865;51.046;3.732;2023-01-26T10:59:31;7.90;99.90
23073;DHT22;34865;51.046;3.732;2023-01-26T11:02:17;7.90;99.90
23073;DHT22;34865;51.046;3.732;2023-01-26T11:05:26;7.90;99.90
23073;DHT22;34865;51.046;3.732;2023-01-26T11:07:58;8.00;99.90
23073;DHT22;34865;51.046;3.732;2023-01-26T11:11:20;8.00;99.90
23073;DHT22;34865;51.046;3.732;2023-01-26T11:13:44;8.10;99.90
23073;DHT22;34865;51.046;3.732;2023-01-26T11:16:24;8.20;99.90
23073;DHT22;34865;51.046;3.732;2023-01-26T11:19:13;8.20;99.90
23073;DHT22;34865;51.046;3.732;2023-01-26T11:21:51;8.50;99.90
23073;DHT22;34865;51.046;3.732;2023-01-26T11:30:08;8.60;99.90
23073;DHT22;34865;51.046;3.732;2023-01-26T11:33:12;8.50;99.90
23073;DHT22;34865;51.046;3.732;2023-01-26T11:50:09;9.20;99.90
23073;DHT22;34865;51.046;3.732;2023-01-26T11:58:50;9.50;99.90
23073;DHT22;34865;51.046;3.732;2023-01-26T12:04:00;9.40;99.90
23073;DHT22;34865;51.046;3.732;2023-01-26T12:08:59;9.30;99.90
23073;DHT22;34865;51.046;3.732;2023-01-26T12:12:02;9.10;99.90
23073;DHT22;34865;51.046;3.732;2023-01-26T12:20:30;9.00;99.90
23073;DHT22;34865;51.046;3.732;2023-01-26T12:23:13;8.70;99.90
23073;DHT22;34865;51.046;3.732;2023-01-26T12:25:44;8.60;99.90
23073;DHT22;34865;51.046;3.732;2023-01-26T12:33:11;8.80;99.90
23073;DHT22;34865;51.046;3.732;2023-01-26T12:38:13;9.10;99.90
23073;DHT22;34865;51.046;3.732;2023-01-26T12:45:57;9.20;99.90
23073;DHT22;34865;51.046;3.732;2023-01-26T12:48:30;9.20;99.90
23073;DHT22;34865;51.046;3.732;2023-01-26T12:51:25;9.00;99.90
23073;DHT22;34865;51.046;3.732;2023-01-26T12:54:07;9.20;99.90
23073;DHT22;34865;51.046;3.732;2023-01-26T12:56:41;9.50;99.90
23073;DHT22;34865;51.046;3.732;2023-01-26T13:01:47;9.40;99.90
23073;DHT22;34865;51.046;3.732;2023-01-26T13:04:14;9.30;99.90
23073;DHT22;34865;51.046;3.732;2023-01-26T13:06:41;9.40;99.90
23073;DHT22;34865;51.046;3.732;2023-01-26T13:09:22;9.20;99.90
23073;DHT22;34865;51.046;3.732;2023-01-26T13:33:15;9.50;99.90
23073;DHT22;34865;51.046;3.732;2023-01-26T13:35:47;9.30;99.90
23073;DHT22;34865;51.046;3.732;2023-01-26T13:38:28;9.30;99.90
23073;DHT22;34865;51.046;3.732;2023-01-26T13:40:56;9.30;99.90
23073;DHT22;34865;51.046;3.732;2023-01-26T13:45:59;9.50;99.90
23073;DHT22;34865;51.046;3.732;2023-01-26T13:48:49;9.60;99.90
23073;DHT22;34865;51.046;3.732;2023-01-26T13:53:43;9.90;99.90
23073;DHT22;34865;51.046;3.732;2023-01-26T13:56:26;9.80;99.90
23073;DHT22;34865;51.046;3.732;2023-01-26T13:58:52;9.90;99.90
23073;DHT22;34865;51.046;3.732;2023-01-26T14:01:19;9.90;99.90
23073;DHT22;34865;51.046;3.732;2023-01-26T14:03:45;9.90;99.90
23073;DHT22;34865;51.046;3.732;2023-01-26T14:06:17;9.80;99.90
23073;DHT22;34865;51.046;3.732;2023-01-26T14:08:54;9.70;99.90
23073;DHT22;34865;51.046;3.732;2023-01-26T14:11:26;9.60;99.90
23073;DHT22;34865;51.046;3.732;2023-01-26T14:13:55;9.60;99.90
23073;DHT22;34865;51.046;3.732;2023-01-26T14:16:34;9.60;99.90
23073;DHT22;34865;51.046;3.732;2023-01-26T14:19:20;9.50;99.90
23073;DHT22;34865;51.046;3.732;2023-01-26T14:21:50;9.60;99.90
23073;DHT22;34865;51.046;3.732;2023-01-26T14:24:18;9.60;99.90
23073;DHT22;34865;51.046;3.732;2023-01-26T14:26:46;9.50;99.90
23073;DHT22;34865;51.046;3.732;2023-01-26T14:29:22;9.50;99.90
23073;DHT22;34865;51.046;3.732;2023-01-26T14:31:48;9.50;99.90
23073;DHT22;34865;51.046;3.732;2023-01-26T14:34:26;9.40;99.90
23073;DHT22;34865;51.046;3.732;2023-01-26T14:37:16;9.40;99.90
23073;DHT22;34865;51.046;3.732;2023-01-26T14:39:43;9.50;99.90
23073;DHT22;34865;51.046;3.732;2023-01-26T14:42:20;9.50;99.90
23073;DHT22;34865;51.046;3.732;2023-01-26T14:44:46;9.50;99.90
23073;DHT22;34865;51.046;3.732;2023-01-26T14:47:20;9.50;99.90
23073;DHT22;34865;51.046;3.732;2023-01-26T14:50:26;9.50;99.90
23073;DHT22;34865;51.046;3.732;2023-01-26T14:52:52;9.40;99.90
23073;DHT22;34865;51.046;3.732;2023-01-26T14:55:24;9.50;99.90
23073;DHT22;34865;51.046;3.732;2023-01-26T14:57:51;9.40;99.90
23073;DHT22;34865;51.046;3.732;2023-01-26T15:02:54;9.40;99.90
23073;DHT22;34865;51.046;3.732;2023-01-26T15:05:32;9.30;99.90
23073;DHT22;34865;51.046;3.732;2023-01-26T15:08:04;9.30;99.90
23073;DHT22;34865;51.046;3.732;2023-01-26T15:10:34;9.30;99.90
23073;DHT22;34865;51.046;3.732;2023-01-26T15:15:42;9.20;99.90
23073;DHT22;34865;51.046;3.732;2023-01-26T15:23:33;9.30;99.90
23073;DHT22;34865;51.046;3.732;2023-01-26T15:28:39;9.20;99.90
23073;DHT22;34865;51.046;3.732;2023-01-26T15:31:06;9.20;99.90
23073;DHT22;34865;51.046;3.732;2023-01-26T15:33:52;9.20;99.90
23073;DHT22;34865;51.046;3.732;2023-01-26T15:36:33;9.10;99.90
23073;DHT22;34865;51.046;3.732;2023-01-26T15:39:14;9.20;99.90
23073;DHT22;34865;51.046;3.732;2023-01-26T15:41:41;9.20;99.90
23073;DHT22;34865;51.046;3.732;2023-01-26T15:44:18;9.10;99.90
23073;DHT22;34865;51.046;3.732;2023-01-26T15:46:44;9.10;99.90
23073;DHT22;34865;51.046;3.732;2023-01-26T15:49:14;9.00;99.90
23073;DHT22;34865;51.046;3.732;2023-01-26T15:51:39;8.90;99.90
23073;DHT22;34865;51.046;3.732;2023-01-26T15:54:05;8.90;99.90
23073;DHT22;34865;51.046;3.732;2023-01-26T15:56:31;8.90;99.90
23073;DHT22;34865;51.046;3.732;2023-01-26T15:58:57;9.10;99.90
23073;DHT22;34865;51.046;3.732;2023-01-26T16:01:23;9.10;99.90
23073;DHT22;34865;51.046;3.732;2023-01-26T16:03:49;9.10;99.90
23073;DHT22;34865;51.046;3.732;2023-01-26T16:06:21;9.00;99.90
23073;DHT22;34865;51.046;3.732;2023-01-26T16:08:47;8.90;99.90
23073;DHT22;34865;51.046;3.732;2023-01-26T16:11:13;8.90;99.90
23073;DHT22;34865;51.046;3.732;2023-01-26T16:13:39;8.80;99.90
23073;DHT22;34865;51.046;3.732;2023-01-26T16:16:08;8.80;99.90
23073;DHT22;34865;51.046;3.732;2023-01-26T16:18:34;8.80;99.90
23073;DHT22;34865;51.046;3.732;2023-01-26T16:21:00;8.80;99.90
23073;DHT22;34865;51.046;3.732;2023-01-26T16:23:27;8.90;99.90
23073;DHT22;34865;51.046;3.732;2023-01-26T16:25:54;8.90;99.90
23073;DHT22;34865;51.046;3.732;2023-01-26T16:28:20;8.80;99.90
23073;DHT22;34865;51.046;3.732;2023-01-26T16:30:47;8.90;99.90
23073;DHT22;34865;51.046;3.732;2023-01-26T16:33:16;8.80;99.90
23073;DHT22;34865;51.046;3.732;2023-01-26T16:35:42;8.80;99.90
23073;DHT22;34865;51.046;3.732;2023-01-26T16:38:08;8.90;99.90
23073;DHT22;34865;51.046;3.732;2023-01-26T16:40:42;8.80;99.90
23073;DHT22;34865;51.046;3.732;2023-01-26T16:43:23;8.60;99.90
23073;DHT22;34865;51.046;3.732;2023-01-26T16:45:52;8.60;99.90
23073;DHT22;34865;51.046;3.732;2023-01-26T16:48:18;8.50;99.90
23073;DHT22;34865;51.046;3.732;2023-01-26T16:50:43;8.40;99.90
23073;DHT22;34865;51.046;3.732;2023-01-26T16:55:52;8.30;99.90
23073;DHT22;34865;51.046;3.732;2023-01-26T16:58:18;8.40;99.90
23073;DHT22;34865;51.046;3.732;2023-01-26T17:00:44;8.40;99.90
23073;DHT22;34865;51.046;3.732;2023-01-26T17:03:10;8.40;99.90
23073;DHT22;34865;51.046;3.732;2023-01-26T17:05:37;8.50;99.90
23073;DHT22;34865;51.046;3.732;2023-01-26T17:08:03;8.50;99.90
23073;DHT22;34865;51.046;3.732;2023-01-26T17:10:29;8.40;99.90
23073;DHT22;34865;51.046;3.732;2023-01-26T17:12:54;8.40;99.90
23073;DHT22;34865;51.046;3.732;2023-01-26T17:15:20;8.40;99.90
23073;DHT22;34865;51.046;3.732;2023-01-26T17:17:49;8.30;99.90
23073;DHT22;34865;51.046;3.732;2023-01-26T17:20:16;8.50;99.90
23073;DHT22;34865;51.046;3.732;2023-01-26T17:22:42;8.40;99.90
23073;DHT22;34865;51.046;3.732;2023-01-26T17:25:08;8.50;99.90
23073;DHT22;34865;51.046;3.732;2023-01-26T17:27:34;8.40;99.90
23073;DHT22;34865;51.046;3.732;2023-01-26T17:30:00;8.50;99.90
23073;DHT22;34865;51.046;3.732;2023-01-26T17:32:26;8.40;99.90
23073;DHT22;34865;51.046;3.732;2023-01-26T17:34:53;8.30;99.90
23073;DHT22;34865;51.046;3.732;2023-01-26T17:37:20;8.40;99.90
23073;DHT22;34865;51.046;3.732;2023-01-26T17:39:47;8.40;99.90
23073;DHT22;34865;51.046;3.732;2023-01-26T17:42:13;8.40;99.90
23073;DHT22;34865;51.046;3.732;2023-01-26T17:44:38;8.40;99.90
23073;DHT22;34865;51.046;3.732;2023-01-26T17:47:05;8.40;99.90
23073;DHT22;34865;51.046;3.732;2023-01-26T17:49:34;8.40;99.90
23073;DHT22;34865;51.046;3.732;2023-01-26T17:52:00;8.20;99.90
23073;DHT22;34865;51.046;3.732;2023-01-26T17:54:26;8.40;99.90
23073;DHT22;34865;51.046;3.732;2023-01-26T17:56:52;8.20;99.90
23073;DHT22;34865;51.046;3.732;2023-01-26T17:59:19;8.20;99.90
23073;DHT22;34865;51.046;3.732;2023-01-26T18:01:45;8.30;99.90
23073;DHT22;34865;51.046;3.732;2023-01-26T18:04:11;8.20;99.90
23073;DHT22;34865;51.046;3.732;2023-01-26T18:06:38;8.30;99.90